sensor_id;sensor_type;location;lat;lon;timestamp;P1;durP1;ratioP1;P2;durP2;ratioP2
41309;SDS011;27057;51.438;-0.010;2024-02-15T00:02:29;2.70;;;1.50;;
41309;SDS011;27057;51.438;-0.010;2024-02-15T00:04:57;3.00;;;1.50;;
41309;SDS011;27057;51.438;-0.010;2024-02-15T00:07:25;5.28;;;1.30;;
41309;SDS011;27057;51.438;-0.010;2024-02-15T00:09:53;3.78;;;1.45;;
41309;SDS011;27057;51.438;-0.010;2024-02-15T00:12:21;1.65;;;0.80;;
41309;SDS011;27057;51.438;-0.010;2024-02-15T00:14:48;1.75;;;1.10;;
41309;SDS011;27057;51.438;-0.010;2024-02-15T00:17:16;5.80;;;1.15;;
41309;SDS011;27057;51.438;-0.010;2024-02-15T00:19:44;1.77;;;1.27;;
41309;SDS011;27057;51.438;-0.010;2024-02-15T00:22:13;1.02;;;0.85;;
41309;SDS011;27057;51.438;-0.010;2024-02-15T00:24:41;5.90;;;1.02;;
41309;SDS011;27057;51.438;-0.010;2024-02-15T00:27:09;2.03;;;0.60;;
41309;SDS011;27057;51.438;-0.010;2024-02-15T00:29:38;4.28;;;1.20;;
41309;SDS011;27057;51.438;-0.010;2024-02-15T00:32:07;4.32;;;1.05;;
41309;SDS011;27057;51.438;-0.010;2024-02-15T00:34:35;4.32;;;1.08;;
41309;SDS011;27057;51.438;-0.010;2024-02-15T00:37:05;4.30;;;1.38;;
41309;SDS011;27057;51.438;-0.010;2024-02-15T00:39:33;1.85;;;1.70;;
41309;SDS011;27057;51.438;-0.010;2024-02-15T00:42:00;2.88;;;1.52;;
41309;SDS011;27057;51.438;-0.010;2024-02-15T00:44:28;5.78;;;1.90;;
41309;SDS011;27057;51.438;-0.010;2024-02-15T00:46:56;5.85;;;2.58;;
41309;SDS011;27057;51.438;-0.010;2024-02-15T00:49:23;5.63;;;2.60;;
41309;SDS011;27057;51.438;-0.010;2024-02-15T00:51:55;5.82;;;2.85;;
41309;SDS011;27057;51.438;-0.010;2024-02-15T00:54:22;6.55;;;2.63;;
41309;SDS011;27057;51.438;-0.010;2024-02-15T00:56:50;4.85;;;2.63;;
41309;SDS011;27057;51.438;-0.010;2024-02-15T00:59:19;5.93;;;2.83;;
41309;SDS011;27057;51.438;-0.010;2024-02-15T01:01:46;5.45;;;2.92;;
41309;SDS011;27057;51.438;-0.010;2024-02-15T01:04:15;12.77;;;2.88;;
41309;SDS011;27057;51.438;-0.010;2024-02-15T01:06:42;4.60;;;2.42;;
41309;SDS011;27057;51.438;-0.010;2024-02-15T01:09:09;6.57;;;3.08;;
41309;SDS011;27057;51.438;-0.010;2024-02-15T01:11:37;6.35;;;3.40;;
41309;SDS011;27057;51.438;-0.010;2024-02-15T01:14:05;7.20;;;3.30;;
41309;SDS011;27057;51.438;-0.010;2024-02-15T01:16:36;10.02;;;5.47;;
41309;SDS011;27057;51.438;-0.010;2024-02-15T01:19:04;7.03;;;3.38;;
41309;SDS011;27057;51.438;-0.010;2024-02-15T01:21:32;7.13;;;3.63;;
41309;SDS011;27057;51.438;-0.010;2024-02-15T01:24:03;10.63;;;3.70;;
41309;SDS011;27057;51.438;-0.010;2024-02-15T01:26:33;9.85;;;3.78;;
41309;SDS011;27057;51.438;-0.010;2024-02-15T01:29:01;8.68;;;4.00;;
41309;SDS011;27057;51.438;-0.010;2024-02-15T01:31:30;7.07;;;3.42;;
41309;SDS011;27057;51.438;-0.010;2024-02-15T01:33:57;14.45;;;3.70;;
41309;SDS011;27057;51.438;-0.010;2024-02-15T01:36:25;8.10;;;3.20;;
41309;SDS011;27057;51.438;-0.010;2024-02-15T01:38:53;5.82;;;2.95;;
41309;SDS011;27057;51.438;-0.010;2024-02-15T01:41:20;4.25;;;2.95;;
41309;SDS011;27057;51.438;-0.010;2024-02-15T01:43:48;7.78;;;2.85;;
41309;SDS011;27057;51.438;-0.010;2024-02-15T01:46:16;6.18;;;3.05;;
41309;SDS011;27057;51.438;-0.010;2024-02-15T01:48:44;7.82;;;3.60;;
41309;SDS011;27057;51.438;-0.010;2024-02-15T01:51:13;13.77;;;3.75;;
41309;SDS011;27057;51.438;-0.010;2024-02-15T01:53:43;10.88;;;3.83;;
41309;SDS011;27057;51.438;-0.010;2024-02-15T01:56:11;9.35;;;3.92;;
41309;SDS011;27057;51.438;-0.010;2024-02-15T01:58:41;13.10;;;4.13;;
41309;SDS011;27057;51.438;-0.010;2024-02-15T02:01:12;8.30;;;3.45;;
41309;SDS011;27057;51.438;-0.010;2024-02-15T02:03:41;9.25;;;3.83;;
41309;SDS011;27057;51.438;-0.010;2024-02-15T02:06:09;8.95;;;3.58;;
41309;SDS011;27057;51.438;-0.010;2024-02-15T02:08:36;9.18;;;3.90;;
41309;SDS011;27057;51.438;-0.010;2024-02-15T02:11:04;9.45;;;3.40;;
41309;SDS011;27057;51.438;-0.010;2024-02-15T02:13:32;6.47;;;3.60;;
41309;SDS011;27057;51.438;-0.010;2024-02-15T02:15:59;7.20;;;2.70;;
41309;SDS011;27057;51.438;-0.010;2024-02-15T02:18:27;8.23;;;3.40;;
41309;SDS011;27057;51.438;-0.010;2024-02-15T02:20:54;7.40;;;4.45;;
41309;SDS011;27057;51.438;-0.010;2024-02-15T02:23:23;5.38;;;3.40;;
41309;SDS011;27057;51.438;-0.010;2024-02-15T02:25:54;8.32;;;3.85;;
41309;SDS011;27057;51.438;-0.010;2024-02-15T02:28:23;10.32;;;4.50;;
41309;SDS011;27057;51.438;-0.010;2024-02-15T02:30:50;6.00;;;3.70;;
41309;SDS011;27057;51.438;-0.010;2024-02-15T02:33:18;6.97;;;4.10;;
41309;SDS011;27057;51.438;-0.010;2024-02-15T02:35:49;12.80;;;4.13;;
41309;SDS011;27057;51.438;-0.010;2024-02-15T02:38:17;6.82;;;3.72;;
41309;SDS011;27057;51.438;-0.010;2024-02-15T02:40:45;8.20;;;2.50;;
41309;SDS011;27057;51.438;-0.010;2024-02-15T02:43:14;4.93;;;2.80;;
41309;SDS011;27057;51.438;-0.010;2024-02-15T02:45:41;7.22;;;2.22;;
41309;SDS011;27057;51.438;-0.010;2024-02-15T02:48:09;3.35;;;1.50;;
41309;SDS011;27057;51.438;-0.010;2024-02-15T02:50:37;1.88;;;1.50;;
41309;SDS011;27057;51.438;-0.010;2024-02-15T02:53:07;3.47;;;1.45;;
41309;SDS011;27057;51.438;-0.010;2024-02-15T02:55:37;2.13;;;1.13;;
41309;SDS011;27057;51.438;-0.010;2024-02-15T02:58:05;3.13;;;0.95;;
41309;SDS011;27057;51.438;-0.010;2024-02-15T03:00:34;0.68;;;0.65;;
41309;SDS011;27057;51.438;-0.010;2024-02-15T03:03:01;0.60;;;0.60;;
41309;SDS011;27057;51.438;-0.010;2024-02-15T03:05:29;4.68;;;0.63;;
41309;SDS011;27057;51.438;-0.010;2024-02-15T03:07:56;0.40;;;0.40;;
41309;SDS011;27057;51.438;-0.010;2024-02-15T03:10:24;0.30;;;0.30;;
41309;SDS011;27057;51.438;-0.010;2024-02-15T03:12:51;2.00;;;0.90;;
41309;SDS011;27057;51.438;-0.010;2024-02-15T03:15:19;1.38;;;0.50;;
41309;SDS011;27057;51.438;-0.010;2024-02-15T03:17:47;0.35;;;0.35;;
41309;SDS011;27057;51.438;-0.010;2024-02-15T03:20:16;0.70;;;0.70;;
41309;SDS011;27057;51.438;-0.010;2024-02-15T03:25:21;1.55;;;0.57;;
41309;SDS011;27057;51.438;-0.010;2024-02-15T03:27:52;0.70;;;0.52;;
41309;SDS011;27057;51.438;-0.010;2024-02-15T03:30:20;1.65;;;0.50;;
41309;SDS011;27057;51.438;-0.010;2024-02-15T03:32:50;0.50;;;0.50;;
41309;SDS011;27057;51.438;-0.010;2024-02-15T03:35:20;0.40;;;0.40;;
41309;SDS011;27057;51.438;-0.010;2024-02-15T03:37:49;1.30;;;0.80;;
41309;SDS011;27057;51.438;-0.010;2024-02-15T03:40:20;1.33;;;0.50;;
41309;SDS011;27057;51.438;-0.010;2024-02-15T03:42:49;0.47;;;0.47;;
41309;SDS011;27057;51.438;-0.010;2024-02-15T03:45:19;0.75;;;0.60;;
41309;SDS011;27057;51.438;-0.010;2024-02-15T03:47:47;4.38;;;0.95;;
41309;SDS011;27057;51.438;-0.010;2024-02-15T03:50:17;0.60;;;0.60;;
41309;SDS011;27057;51.438;-0.010;2024-02-15T03:52:45;0.40;;;0.40;;
41309;SDS011;27057;51.438;-0.010;2024-02-15T03:55:13;0.63;;;0.60;;
41309;SDS011;27057;51.438;-0.010;2024-02-15T03:57:41;0.55;;;0.55;;
41309;SDS011;27057;51.438;-0.010;2024-02-15T04:00:10;0.75;;;0.50;;
41309;SDS011;27057;51.438;-0.010;2024-02-15T04:02:39;0.68;;;0.50;;
41309;SDS011;27057;51.438;-0.010;2024-02-15T04:05:10;1.90;;;0.65;;
41309;SDS011;27057;51.438;-0.010;2024-02-15T04:07:39;1.13;;;0.80;;
41309;SDS011;27057;51.438;-0.010;2024-02-15T04:10:07;0.80;;;0.65;;
41309;SDS011;27057;51.438;-0.010;2024-02-15T04:12:35;1.73;;;0.80;;
41309;SDS011;27057;51.438;-0.010;2024-02-15T04:15:04;1.17;;;0.63;;
41309;SDS011;27057;51.438;-0.010;2024-02-15T04:17:39;1.75;;;0.65;;
41309;SDS011;27057;51.438;-0.010;2024-02-15T04:20:08;0.85;;;0.68;;
41309;SDS011;27057;51.438;-0.010;2024-02-15T04:22:36;4.43;;;1.20;;
41309;SDS011;27057;51.438;-0.010;2024-02-15T04:25:04;2.05;;;1.05;;
41309;SDS011;27057;51.438;-0.010;2024-02-15T04:27:33;2.78;;;1.00;;
41309;SDS011;27057;51.438;-0.010;2024-02-15T04:30:04;5.95;;;1.10;;
41309;SDS011;27057;51.438;-0.010;2024-02-15T04:32:34;3.80;;;1.10;;
41309;SDS011;27057;51.438;-0.010;2024-02-15T04:35:03;6.20;;;1.55;;
41309;SDS011;27057;51.438;-0.010;2024-02-15T04:37:34;1.58;;;1.38;;
41309;SDS011;27057;51.438;-0.010;2024-02-15T04:40:04;7.70;;;1.50;;
41309;SDS011;27057;51.438;-0.010;2024-02-15T04:42:36;4.20;;;1.58;;
41309;SDS011;27057;51.438;-0.010;2024-02-15T04:45:08;2.53;;;1.60;;
41309;SDS011;27057;51.438;-0.010;2024-02-15T04:47:37;5.18;;;1.92;;
41309;SDS011;27057;51.438;-0.010;2024-02-15T04:50:07;5.90;;;2.15;;
41309;SDS011;27057;51.438;-0.010;2024-02-15T04:52:36;6.53;;;1.95;;
41309;SDS011;27057;51.438;-0.010;2024-02-15T04:55:03;12.07;;;2.15;;
41309;SDS011;27057;51.438;-0.010;2024-02-15T04:57:34;6.60;;;2.75;;
41309;SDS011;27057;51.438;-0.010;2024-02-15T05:00:04;5.90;;;2.88;;
41309;SDS011;27057;51.438;-0.010;2024-02-15T05:02:37;15.40;;;6.25;;
41309;SDS011;27057;51.438;-0.010;2024-02-15T05:05:08;22.13;;;5.18;;
41309;SDS011;27057;51.438;-0.010;2024-02-15T05:07:43;14.60;;;3.65;;
41309;SDS011;27057;51.438;-0.010;2024-02-15T05:10:10;10.50;;;3.50;;
41309;SDS011;27057;51.438;-0.010;2024-02-15T05:12:39;11.18;;;2.80;;
41309;SDS011;27057;51.438;-0.010;2024-02-15T05:15:07;11.70;;;3.75;;
41309;SDS011;27057;51.438;-0.010;2024-02-15T05:17:39;15.73;;;3.95;;
41309;SDS011;27057;51.438;-0.010;2024-02-15T05:20:09;11.13;;;4.55;;
41309;SDS011;27057;51.438;-0.010;2024-02-15T05:22:39;16.30;;;3.97;;
41309;SDS011;27057;51.438;-0.010;2024-02-15T05:27:51;17.40;;;4.25;;
41309;SDS011;27057;51.438;-0.010;2024-02-15T05:30:21;10.35;;;3.83;;
41309;SDS011;27057;51.438;-0.010;2024-02-15T05:32:50;13.68;;;4.95;;
41309;SDS011;27057;51.438;-0.010;2024-02-15T05:35:21;14.95;;;4.88;;
41309;SDS011;27057;51.438;-0.010;2024-02-15T05:37:48;17.95;;;6.45;;
41309;SDS011;27057;51.438;-0.010;2024-02-15T05:40:16;27.80;;;6.32;;
41309;SDS011;27057;51.438;-0.010;2024-02-15T05:42:44;21.00;;;6.65;;
41309;SDS011;27057;51.438;-0.010;2024-02-15T05:47:53;16.75;;;6.85;;
41309;SDS011;27057;51.438;-0.010;2024-02-15T05:50:21;15.10;;;5.20;;
41309;SDS011;27057;51.438;-0.010;2024-02-15T05:52:50;24.25;;;6.30;;
41309;SDS011;27057;51.438;-0.010;2024-02-15T05:55:22;9.48;;;4.05;;
41309;SDS011;27057;51.438;-0.010;2024-02-15T05:57:49;15.32;;;4.05;;
41309;SDS011;27057;51.438;-0.010;2024-02-15T06:00:16;26.85;;;7.32;;
41309;SDS011;27057;51.438;-0.010;2024-02-15T06:02:49;18.35;;;6.07;;
41309;SDS011;27057;51.438;-0.010;2024-02-15T06:05:18;17.35;;;5.88;;
41309;SDS011;27057;51.438;-0.010;2024-02-15T06:07:47;15.70;;;5.65;;
41309;SDS011;27057;51.438;-0.010;2024-02-15T06:10:15;13.88;;;5.45;;
41309;SDS011;27057;51.438;-0.010;2024-02-15T06:12:43;11.48;;;4.57;;
41309;SDS011;27057;51.438;-0.010;2024-02-15T06:15:10;17.38;;;6.22;;
41309;SDS011;27057;51.438;-0.010;2024-02-15T06:17:44;19.92;;;6.43;;
41309;SDS011;27057;51.438;-0.010;2024-02-15T06:20:13;20.02;;;6.35;;
41309;SDS011;27057;51.438;-0.010;2024-02-15T06:22:41;29.98;;;7.18;;
41309;SDS011;27057;51.438;-0.010;2024-02-15T06:25:09;22.70;;;6.38;;
41309;SDS011;27057;51.438;-0.010;2024-02-15T06:27:37;20.23;;;6.80;;
41309;SDS011;27057;51.438;-0.010;2024-02-15T06:30:08;17.88;;;6.28;;
41309;SDS011;27057;51.438;-0.010;2024-02-15T06:32:55;19.50;;;4.93;;
41309;SDS011;27057;51.438;-0.010;2024-02-15T06:35:42;20.83;;;5.90;;
41309;SDS011;27057;51.438;-0.010;2024-02-15T06:38:28;12.35;;;4.50;;
41309;SDS011;27057;51.438;-0.010;2024-02-15T06:41:14;13.25;;;4.82;;
41309;SDS011;27057;51.438;-0.010;2024-02-15T06:43:42;9.88;;;4.47;;
41309;SDS011;27057;51.438;-0.010;2024-02-15T06:46:09;13.13;;;4.60;;
41309;SDS011;27057;51.438;-0.010;2024-02-15T06:48:37;13.73;;;4.45;;
41309;SDS011;27057;51.438;-0.010;2024-02-15T06:51:14;16.95;;;5.75;;
41309;SDS011;27057;51.438;-0.010;2024-02-15T06:53:45;8.43;;;3.08;;
41309;SDS011;27057;51.438;-0.010;2024-02-15T06:56:13;12.57;;;3.63;;
41309;SDS011;27057;51.438;-0.010;2024-02-15T06:58:41;14.20;;;4.88;;
41309;SDS011;27057;51.438;-0.010;2024-02-15T07:01:08;16.10;;;3.65;;
41309;SDS011;27057;51.438;-0.010;2024-02-15T07:03:36;16.33;;;4.32;;
41309;SDS011;27057;51.438;-0.010;2024-02-15T07:06:04;13.52;;;4.05;;
41309;SDS011;27057;51.438;-0.010;2024-02-15T07:08:31;8.60;;;3.63;;
41309;SDS011;27057;51.438;-0.010;2024-02-15T07:10:59;12.50;;;4.05;;
41309;SDS011;27057;51.438;-0.010;2024-02-15T07:13:26;17.88;;;4.28;;
41309;SDS011;27057;51.438;-0.010;2024-02-15T07:15:54;12.48;;;3.50;;
41309;SDS011;27057;51.438;-0.010;2024-02-15T07:18:21;14.32;;;4.05;;
41309;SDS011;27057;51.438;-0.010;2024-02-15T07:20:55;17.88;;;3.70;;
41309;SDS011;27057;51.438;-0.010;2024-02-15T07:23:25;15.90;;;4.00;;
41309;SDS011;27057;51.438;-0.010;2024-02-15T07:25:53;19.05;;;4.53;;
41309;SDS011;27057;51.438;-0.010;2024-02-15T07:28:21;9.27;;;3.75;;
41309;SDS011;27057;51.438;-0.010;2024-02-15T07:30:51;20.13;;;4.35;;
41309;SDS011;27057;51.438;-0.010;2024-02-15T07:33:19;13.23;;;3.95;;
41309;SDS011;27057;51.438;-0.010;2024-02-15T07:35:51;21.85;;;5.10;;
41309;SDS011;27057;51.438;-0.010;2024-02-15T07:38:20;18.13;;;4.28;;
41309;SDS011;27057;51.438;-0.010;2024-02-15T07:40:50;17.80;;;3.78;;
41309;SDS011;27057;51.438;-0.010;2024-02-15T07:43:17;15.00;;;3.58;;
41309;SDS011;27057;51.438;-0.010;2024-02-15T07:45:44;14.35;;;3.50;;
41309;SDS011;27057;51.438;-0.010;2024-02-15T07:48:14;16.92;;;3.83;;
41309;SDS011;27057;51.438;-0.010;2024-02-15T07:50:42;11.38;;;3.53;;
41309;SDS011;27057;51.438;-0.010;2024-02-15T07:53:11;9.85;;;2.83;;
41309;SDS011;27057;51.438;-0.010;2024-02-15T07:55:40;11.32;;;2.92;;
41309;SDS011;27057;51.438;-0.010;2024-02-15T07:58:08;21.48;;;3.60;;
41309;SDS011;27057;51.438;-0.010;2024-02-15T08:00:37;8.18;;;2.90;;
41309;SDS011;27057;51.438;-0.010;2024-02-15T08:03:05;12.65;;;3.25;;
41309;SDS011;27057;51.438;-0.010;2024-02-15T08:05:32;7.80;;;3.30;;
41309;SDS011;27057;51.438;-0.010;2024-02-15T08:08:00;10.10;;;2.92;;
41309;SDS011;27057;51.438;-0.010;2024-02-15T08:10:28;11.15;;;4.00;;
41309;SDS011;27057;51.438;-0.010;2024-02-15T08:12:56;7.32;;;2.70;;
41309;SDS011;27057;51.438;-0.010;2024-02-15T08:15:25;14.55;;;3.22;;
41309;SDS011;27057;51.438;-0.010;2024-02-15T08:17:55;11.38;;;4.70;;
41309;SDS011;27057;51.438;-0.010;2024-02-15T08:20:23;12.65;;;4.07;;
41309;SDS011;27057;51.438;-0.010;2024-02-15T08:22:53;10.52;;;2.78;;
41309;SDS011;27057;51.438;-0.010;2024-02-15T08:25:21;6.90;;;2.72;;
41309;SDS011;27057;51.438;-0.010;2024-02-15T08:27:51;10.30;;;3.05;;
41309;SDS011;27057;51.438;-0.010;2024-02-15T08:30:18;11.52;;;2.92;;
41309;SDS011;27057;51.438;-0.010;2024-02-15T08:32:51;12.50;;;3.05;;
41309;SDS011;27057;51.438;-0.010;2024-02-15T08:35:21;17.77;;;4.13;;
41309;SDS011;27057;51.438;-0.010;2024-02-15T08:37:51;11.65;;;3.10;;
41309;SDS011;27057;51.438;-0.010;2024-02-15T08:40:19;7.47;;;2.58;;
41309;SDS011;27057;51.438;-0.010;2024-02-15T08:42:53;8.82;;;2.55;;
41309;SDS011;27057;51.438;-0.010;2024-02-15T08:45:20;13.65;;;3.08;;
41309;SDS011;27057;51.438;-0.010;2024-02-15T08:47:48;19.08;;;3.38;;
41309;SDS011;27057;51.438;-0.010;2024-02-15T08:50:19;10.25;;;2.47;;
41309;SDS011;27057;51.438;-0.010;2024-02-15T08:52:51;6.85;;;2.05;;
41309;SDS011;27057;51.438;-0.010;2024-02-15T08:55:18;12.30;;;2.35;;
41309;SDS011;27057;51.438;-0.010;2024-02-15T08:57:50;7.95;;;3.15;;
41309;SDS011;27057;51.438;-0.010;2024-02-15T09:00:18;8.40;;;3.40;;
41309;SDS011;27057;51.438;-0.010;2024-02-15T09:02:46;10.93;;;2.42;;
41309;SDS011;27057;51.438;-0.010;2024-02-15T09:05:15;7.43;;;3.13;;
41309;SDS011;27057;51.438;-0.010;2024-02-15T09:07:44;9.73;;;3.17;;
41309;SDS011;27057;51.438;-0.010;2024-02-15T09:10:14;14.05;;;3.28;;
41309;SDS011;27057;51.438;-0.010;2024-02-15T09:12:45;9.77;;;2.88;;
41309;SDS011;27057;51.438;-0.010;2024-02-15T09:15:16;16.85;;;3.20;;
41309;SDS011;27057;51.438;-0.010;2024-02-15T09:17:45;7.47;;;2.45;;
41309;SDS011;27057;51.438;-0.010;2024-02-15T09:20:15;12.32;;;2.55;;
41309;SDS011;27057;51.438;-0.010;2024-02-15T09:22:49;15.30;;;3.95;;
41309;SDS011;27057;51.438;-0.010;2024-02-15T09:25:18;6.20;;;2.10;;
41309;SDS011;27057;51.438;-0.010;2024-02-15T09:27:46;9.05;;;2.78;;
41309;SDS011;27057;51.438;-0.010;2024-02-15T09:30:13;12.10;;;2.50;;
41309;SDS011;27057;51.438;-0.010;2024-02-15T09:32:43;7.53;;;2.42;;
41309;SDS011;27057;51.438;-0.010;2024-02-15T09:35:12;8.88;;;2.80;;
41309;SDS011;27057;51.438;-0.010;2024-02-15T09:37:47;8.80;;;2.65;;
41309;SDS011;27057;51.438;-0.010;2024-02-15T09:40:19;12.18;;;2.67;;
41309;SDS011;27057;51.438;-0.010;2024-02-15T09:42:47;17.52;;;3.28;;
41309;SDS011;27057;51.438;-0.010;2024-02-15T09:45:15;9.00;;;2.83;;
41309;SDS011;27057;51.438;-0.010;2024-02-15T09:47:44;8.52;;;2.67;;
41309;SDS011;27057;51.438;-0.010;2024-02-15T09:50:13;7.57;;;2.47;;
41309;SDS011;27057;51.438;-0.010;2024-02-15T09:52:47;8.50;;;2.25;;
41309;SDS011;27057;51.438;-0.010;2024-02-15T09:55:19;9.52;;;1.92;;
41309;SDS011;27057;51.438;-0.010;2024-02-15T09:57:50;9.82;;;2.05;;
41309;SDS011;27057;51.438;-0.010;2024-02-15T10:00:19;8.93;;;2.28;;
41309;SDS011;27057;51.438;-0.010;2024-02-15T10:02:49;7.03;;;2.10;;
41309;SDS011;27057;51.438;-0.010;2024-02-15T10:05:19;14.15;;;2.70;;
41309;SDS011;27057;51.438;-0.010;2024-02-15T10:07:48;7.03;;;2.42;;
41309;SDS011;27057;51.438;-0.010;2024-02-15T10:10:22;13.25;;;2.92;;
41309;SDS011;27057;51.438;-0.010;2024-02-15T10:12:53;8.70;;;2.63;;
41309;SDS011;27057;51.438;-0.010;2024-02-15T10:15:31;10.82;;;2.65;;
41309;SDS011;27057;51.438;-0.010;2024-02-15T10:18:08;10.27;;;2.50;;
41309;SDS011;27057;51.438;-0.010;2024-02-15T10:20:39;9.73;;;3.00;;
41309;SDS011;27057;51.438;-0.010;2024-02-15T10:25:37;9.70;;;2.47;;
41309;SDS011;27057;51.438;-0.010;2024-02-15T10:28:06;6.55;;;2.20;;
41309;SDS011;27057;51.438;-0.010;2024-02-15T10:30:39;16.38;;;3.92;;
41309;SDS011;27057;51.438;-0.010;2024-02-15T10:33:18;5.97;;;2.30;;
41309;SDS011;27057;51.438;-0.010;2024-02-15T10:36:04;8.80;;;2.50;;
41309;SDS011;27057;51.438;-0.010;2024-02-15T10:38:36;16.55;;;2.45;;
41309;SDS011;27057;51.438;-0.010;2024-02-15T10:41:05;10.15;;;3.00;;
41309;SDS011;27057;51.438;-0.010;2024-02-15T10:43:34;10.85;;;2.38;;
41309;SDS011;27057;51.438;-0.010;2024-02-15T10:46:01;7.15;;;2.90;;
41309;SDS011;27057;51.438;-0.010;2024-02-15T10:48:29;7.10;;;1.92;;
41309;SDS011;27057;51.438;-0.010;2024-02-15T10:50:59;14.80;;;2.67;;
41309;SDS011;27057;51.438;-0.010;2024-02-15T10:53:30;9.55;;;2.25;;
41309;SDS011;27057;51.438;-0.010;2024-02-15T10:58:50;15.18;;;2.53;;
41309;SDS011;27057;51.438;-0.010;2024-02-15T11:01:27;14.23;;;2.80;;
41309;SDS011;27057;51.438;-0.010;2024-02-15T11:03:59;8.32;;;2.42;;
41309;SDS011;27057;51.438;-0.010;2024-02-15T11:06:33;9.57;;;2.45;;
41309;SDS011;27057;51.438;-0.010;2024-02-15T11:09:10;10.33;;;2.73;;
41309;SDS011;27057;51.438;-0.010;2024-02-15T11:11:39;11.55;;;2.63;;
41309;SDS011;27057;51.438;-0.010;2024-02-15T11:14:25;5.28;;;2.38;;
41309;SDS011;27057;51.438;-0.010;2024-02-15T11:16:57;10.98;;;3.10;;
41309;SDS011;27057;51.438;-0.010;2024-02-15T11:24:45;10.25;;;2.90;;
41309;SDS011;27057;51.438;-0.010;2024-02-15T11:27:27;16.08;;;2.58;;
41309;SDS011;27057;51.438;-0.010;2024-02-15T11:29:57;10.02;;;2.50;;
41309;SDS011;27057;51.438;-0.010;2024-02-15T11:33:04;12.82;;;2.33;;
41309;SDS011;27057;51.438;-0.010;2024-02-15T11:35:25;6.60;;;2.25;;
41309;SDS011;27057;51.438;-0.010;2024-02-15T11:37:55;8.90;;;1.83;;
41309;SDS011;27057;51.438;-0.010;2024-02-15T11:43:08;9.90;;;1.83;;
41309;SDS011;27057;51.438;-0.010;2024-02-15T11:45:37;8.25;;;1.92;;
41309;SDS011;27057;51.438;-0.010;2024-02-15T11:48:09;3.25;;;1.70;;
41309;SDS011;27057;51.438;-0.010;2024-02-15T11:50:39;6.70;;;2.58;;
41309;SDS011;27057;51.438;-0.010;2024-02-15T11:53:08;16.13;;;2.15;;
41309;SDS011;27057;51.438;-0.010;2024-02-15T11:55:38;7.57;;;1.92;;
41309;SDS011;27057;51.438;-0.010;2024-02-15T11:58:07;5.47;;;1.63;;
41309;SDS011;27057;51.438;-0.010;2024-02-15T12:00:36;7.38;;;2.08;;
41309;SDS011;27057;51.438;-0.010;2024-02-15T12:03:22;5.30;;;2.07;;
41309;SDS011;27057;51.438;-0.010;2024-02-15T12:06:27;9.00;;;1.50;;
41309;SDS011;27057;51.438;-0.010;2024-02-15T12:09:17;11.52;;;2.53;;
41309;SDS011;27057;51.438;-0.010;2024-02-15T12:12:05;5.40;;;1.90;;
41309;SDS011;27057;51.438;-0.010;2024-02-15T12:14:58;16.77;;;2.08;;
41309;SDS011;27057;51.438;-0.010;2024-02-15T12:17:45;6.95;;;1.88;;
41309;SDS011;27057;51.438;-0.010;2024-02-15T12:20:32;5.53;;;2.00;;
41309;SDS011;27057;51.438;-0.010;2024-02-15T12:22:59;7.57;;;1.77;;
41309;SDS011;27057;51.438;-0.010;2024-02-15T12:25:27;7.13;;;1.52;;
41309;SDS011;27057;51.438;-0.010;2024-02-15T12:27:55;5.00;;;2.42;;
41309;SDS011;27057;51.438;-0.010;2024-02-15T12:30:25;8.27;;;1.92;;
41309;SDS011;27057;51.438;-0.010;2024-02-15T12:33:10;3.22;;;1.50;;
41309;SDS011;27057;51.438;-0.010;2024-02-15T12:35:40;9.43;;;2.13;;
41309;SDS011;27057;51.438;-0.010;2024-02-15T12:38:09;5.43;;;1.80;;
41309;SDS011;27057;51.438;-0.010;2024-02-15T12:40:43;3.58;;;1.40;;
41309;SDS011;27057;51.438;-0.010;2024-02-15T12:43:14;3.60;;;1.20;;
41309;SDS011;27057;51.438;-0.010;2024-02-15T12:45:42;3.10;;;1.30;;
41309;SDS011;27057;51.438;-0.010;2024-02-15T12:48:10;7.07;;;1.50;;
41309;SDS011;27057;51.438;-0.010;2024-02-15T12:50:38;10.05;;;1.80;;
41309;SDS011;27057;51.438;-0.010;2024-02-15T12:53:06;4.80;;;1.50;;
41309;SDS011;27057;51.438;-0.010;2024-02-15T12:55:35;2.17;;;1.20;;
41309;SDS011;27057;51.438;-0.010;2024-02-15T12:58:05;3.95;;;1.73;;
41309;SDS011;27057;51.438;-0.010;2024-02-15T13:00:41;13.55;;;1.95;;
41309;SDS011;27057;51.438;-0.010;2024-02-15T13:03:09;4.57;;;1.98;;
41309;SDS011;27057;51.438;-0.010;2024-02-15T13:05:38;4.43;;;1.40;;
41309;SDS011;27057;51.438;-0.010;2024-02-15T13:08:07;4.20;;;1.60;;
41309;SDS011;27057;51.438;-0.010;2024-02-15T13:10:41;3.55;;;1.52;;
41309;SDS011;27057;51.438;-0.010;2024-02-15T13:13:09;3.25;;;1.40;;
41309;SDS011;27057;51.438;-0.010;2024-02-15T13:15:37;3.65;;;1.27;;
41309;SDS011;27057;51.438;-0.010;2024-02-15T13:18:06;5.30;;;1.35;;
41309;SDS011;27057;51.438;-0.010;2024-02-15T13:20:37;8.68;;;2.13;;
41309;SDS011;27057;51.438;-0.010;2024-02-15T13:23:06;11.48;;;1.73;;
41309;SDS011;27057;51.438;-0.010;2024-02-15T13:25:38;8.15;;;2.45;;
41309;SDS011;27057;51.438;-0.010;2024-02-15T13:28:11;3.72;;;1.02;;
41309;SDS011;27057;51.438;-0.010;2024-02-15T13:30:41;3.05;;;1.15;;
41309;SDS011;27057;51.438;-0.010;2024-02-15T13:33:12;2.13;;;1.20;;
41309;SDS011;27057;51.438;-0.010;2024-02-15T13:35:41;8.57;;;1.95;;
41309;SDS011;27057;51.438;-0.010;2024-02-15T13:38:11;5.05;;;1.25;;
41309;SDS011;27057;51.438;-0.010;2024-02-15T13:40:42;4.20;;;1.20;;
41309;SDS011;27057;51.438;-0.010;2024-02-15T13:43:12;2.92;;;1.40;;
41309;SDS011;27057;51.438;-0.010;2024-02-15T13:45:40;7.45;;;1.67;;
41309;SDS011;27057;51.438;-0.010;2024-02-15T13:48:09;4.85;;;1.42;;
41309;SDS011;27057;51.438;-0.010;2024-02-15T13:50:37;6.57;;;1.55;;
41309;SDS011;27057;51.438;-0.010;2024-02-15T13:53:06;5.68;;;1.17;;
41309;SDS011;27057;51.438;-0.010;2024-02-15T13:55:36;4.50;;;1.30;;
41309;SDS011;27057;51.438;-0.010;2024-02-15T13:58:04;3.80;;;1.45;;
41309;SDS011;27057;51.438;-0.010;2024-02-15T14:00:34;5.88;;;1.73;;
41309;SDS011;27057;51.438;-0.010;2024-02-15T14:03:02;4.15;;;1.73;;
41309;SDS011;27057;51.438;-0.010;2024-02-15T14:05:33;3.85;;;1.42;;
41309;SDS011;27057;51.438;-0.010;2024-02-15T14:08:01;4.43;;;1.60;;
41309;SDS011;27057;51.438;-0.010;2024-02-15T14:10:33;6.38;;;1.15;;
41309;SDS011;27057;51.438;-0.010;2024-02-15T14:13:04;3.95;;;1.50;;
41309;SDS011;27057;51.438;-0.010;2024-02-15T14:15:33;11.52;;;1.63;;
41309;SDS011;27057;51.438;-0.010;2024-02-15T14:18:04;8.52;;;1.83;;
41309;SDS011;27057;51.438;-0.010;2024-02-15T14:20:32;2.97;;;1.42;;
41309;SDS011;27057;51.438;-0.010;2024-02-15T14:23:00;7.05;;;1.70;;
41309;SDS011;27057;51.438;-0.010;2024-02-15T14:25:32;4.40;;;1.45;;
41309;SDS011;27057;51.438;-0.010;2024-02-15T14:28:02;3.15;;;1.40;;
41309;SDS011;27057;51.438;-0.010;2024-02-15T14:30:32;2.90;;;1.38;;
41309;SDS011;27057;51.438;-0.010;2024-02-15T14:33:18;4.50;;;1.52;;
41309;SDS011;27057;51.438;-0.010;2024-02-15T14:35:51;3.75;;;1.73;;
41309;SDS011;27057;51.438;-0.010;2024-02-15T14:38:22;7.07;;;1.92;;
41309;SDS011;27057;51.438;-0.010;2024-02-15T14:40:51;6.88;;;1.67;;
41309;SDS011;27057;51.438;-0.010;2024-02-15T14:43:21;10.18;;;1.50;;
41309;SDS011;27057;51.438;-0.010;2024-02-15T14:45:53;4.70;;;1.50;;
41309;SDS011;27057;51.438;-0.010;2024-02-15T14:48:23;8.30;;;1.52;;
41309;SDS011;27057;51.438;-0.010;2024-02-15T14:50:51;4.90;;;2.30;;
41309;SDS011;27057;51.438;-0.010;2024-02-15T14:53:20;8.23;;;2.42;;
41309;SDS011;27057;51.438;-0.010;2024-02-15T14:55:48;5.03;;;1.42;;
41309;SDS011;27057;51.438;-0.010;2024-02-15T14:58:21;6.13;;;1.40;;
41309;SDS011;27057;51.438;-0.010;2024-02-15T15:00:49;8.77;;;1.55;;
41309;SDS011;27057;51.438;-0.010;2024-02-15T15:03:17;4.82;;;1.25;;
41309;SDS011;27057;51.438;-0.010;2024-02-15T15:05:47;7.32;;;2.45;;
41309;SDS011;27057;51.438;-0.010;2024-02-15T15:08:33;5.05;;;2.05;;
41309;SDS011;27057;51.438;-0.010;2024-02-15T15:11:19;6.78;;;1.90;;